METAR Data
IDs: Format: Raw Decoded Include TAF

Data at: 0013 UTC 30 May 2020

METAR for:KNYG (Quantico (MCAF), VA, US)
Text:KNYG 292356Z AUTO 18009KT 7SM CLR 24/22 A2993 RMK AO2 SLP136 T02440217 10283 20239 53002 $
Temperature: 24.4°C ( 76°F)
Dewpoint: 21.7°C ( 71°F) [RH = 85%]
Pressure (altimeter):29.93 inches Hg (1013.6 mb) [Sea level pressure: 1013.6 mb]
Winds:from the S (180 degrees) at 10 MPH (9 knots; 4.6 m/s)
Visibility: 7 sm ( 11 km)
Ceiling:at least 12,000 feet AGL
Clouds:sky clear below 12,000 feet AGL
QC Flag:automated observation with no human augmentation; SOME DATA ABOVE MAY BE INACCURATE!!!"$" is an indication the sensor requires maintenance.